Tiempo atmosférico en la estación meteorológica de Villarrasa, Huelva (145 m.)



Fecha
DESCASC
Temp. máxima en grados centígrados (hora)
DESCASC
Temp. mínima en grados centígrados (hora)
DESCASC
Temp. media en grados centígrados
DESCASC
Racha de viento máxima en m/sg (hora)
DESCASC
Velocidad máxima media en intervalos de 10 minutos(hora)
DESCASC
Precipitaciones diarias en mm
DESCASC
Precipitaciones de 00:00 a 06:00 en mm
DESCASC
Precipitaciones de 06:00 a 12:00 en mm
DESCASC
Precipitaciones de 12:00 a 18:00 en mm
DESCASC
Precipitaciones de 18:00 a 24:00 en mm
DESCASC
22-08-2019 37.1 (16:40) 19.3 (06:20) 28.2 11.11 (13:00) 5.83 (13:20) 0 0 0 0 0
21-08-2019 36.1 (17:10) 15.5 (05:50) 25.8 9.17 (18:30) 5.83 (18:30) 0 0 0 0 0
20-08-2019 35.4 (17:20) 15.7 (06:50) 25.6 10.83 (17:50) 5.28 (19:10) 0 0 0 0 0
19-08-2019 35 (16:10) 18.3 (07:10) 26.6 10.28 (17:50) 6.39 (17:50) 0 0 0 0 0
18-08-2019 37.1 (17:30) 17.8 (00:00) 27.4 10 (17:50) 5.83 (18:00) 0 0 0 0 0
17-08-2019 39.3 (16:40) 16.6 (00:00) 27.9 10 (16:30) 5.56 (20:00) 0 0 0 0 0
16-08-2019 37.8 (15:30) 17.4 (00:00) 27.6 10.56 (17:20) 5.56 (18:40) 0 0 0 0 0
15-08-2019 37.6 (16:10) 17.4 (00:00) 27.5 8.89 (19:50) 5.83 (18:20) 0 0 0 0 0
14-08-2019 37.5 (17:40) 14.2 (00:00) 25.8 8.89 (18:10) 5.83 (19:50) 0 0 0 0 0
13-08-2019 36.2 (16:40) 14.7 (00:00) 25.5 9.44 (19:20) 5.56 (19:00) 0 0 0 0 0
12-08-2019 33.5 (17:40) 15.6 (00:00) 24.6 10 (02:50) 5 (01:00) 0 0 0 0 0
11-08-2019 31.4 (16:10) 18.4 (00:00) 24.9 10.56 (16:20) 6.11 (20:10) 0 0 0 0 0
10-08-2019 35 (17:50) 18.9 (00:00) 26.9 8.61 (18:10) 5 (20:20) 0 0 0 0 0
09-08-2019 33.1 (14:40) 19.1 (00:00) 26.1 9.72 (15:30) 5.83 (15:20) 0 0 0 0 0
08-08-2019 35.2 (15:10) 18.7 (00:00) 27 9.72 (20:10) 5.28 (16:30) 0 0 0 0 0
07-08-2019 35.1 (17:50) 18.8 (00:00) 26.9 10.83 (19:50) 6.67 (19:40) 0 0 0 0 0
06-08-2019 36.5 (16:30) 14.9 (00:00) 25.7 8.61 (18:20) 5 (18:00) 0 0 0 0 0
05-08-2019 36.5 (16:20) 16.8 (00:00) 26.6 10 (17:30) 6.11 (17:40) 0 0 0 0 0
04-08-2019 37.2 (16:20) 14.9 (00:00) 26.1 10.28 (18:50) 6.11 (19:00) 0 0 0 0 0
03-08-2019 34.8 (17:30) 15.2 (00:00) 25 9.17 (17:40) 4.72 (18:40) 0 0 0 0 0
02-08-2019 36.2 (16:20) 15.7 (00:00) 26 9.72 (17:00) 5.56 (17:50) 0 0 0 0 0
01-08-2019 35 (16:40) 15 (00:00) 25 9.72 (18:00) 6.11 (17:50) 0 0 0 0 0
31-07-2019 35.2 (16:10) 14.9 (00:00) 25.1 11.11 (17:00) 6.11 (17:00) 0 0 0 0 0
30-07-2019 36.9 (17:10) 14.6 (00:00) 25.8 8.33 (02:30) 4.44 (00:30) 0 0 0 0 0
29-07-2019 34.4 (16:30) 14.7 (00:00) 24.6 10.28 (17:50) 5.83 (17:50) 0 0 0 0 0
28-07-2019 31.6 (16:10) 14.2 (00:00) 22.9 9.44 (17:20) 5.56 (19:10) 0 0 0 0 0
27-07-2019 26.3 (15:30) 17.6 (00:00) 21.9 9.72 (14:50) 5.56 (13:10) 0.2 0 0 0 0.2
26-07-2019 31.9 (18:30) 18.9 (00:00) 25.4 11.94 (15:00) 5.83 (16:00) 0 0 0 0 0
25-07-2019 35.1 (17:00) 16.4 (00:00) 25.7 10.28 (18:50) 6.39 (18:30) 0 0 0 0 0
24-07-2019 36 (15:30) 18.8 (00:00) 27.4 8.89 (16:40) 5 (17:50) 0 0 0 0 0

Gráficas

Temp. máximas Temp. mínimas Temp. medias Precipitaciones Rachas de viento máximas Velocidades máximas media en intervalos de 10 minutos

Datos horarios

Fecha y hora oficial Temperatura (ºC) Velocidad del viento (km/h) Dirección del viento Racha (km/h) Dirección de racha Precipitación (mm) Presión (hPa) Tendencia (hPa) Humedad (%)
2019-08-22 23:00:00 25.8 8 Noroeste 14 Noroeste 0 -- -- 56
2019-08-22 22:00:00 27.7 8 Oeste 22 Oeste 0 -- -- 51
2019-08-22 21:00:00 29.6 10 Oeste 24 Sudoeste 0 -- -- 48
2019-08-22 20:00:00 31.7 16 Sudoeste 32 Oeste 0 -- -- 41
2019-08-22 19:00:00 36.4 10 Este 35 Este 0 -- -- 28
2019-08-22 18:00:00 36.6 17 Sudeste 35 Este 0 -- -- 29
2019-08-22 17:00:00 36.8 18 Sudeste 35 Sudeste 0 -- -- 33
2019-08-22 16:00:00 36.1 16 Este 36 Nordeste 0 -- -- 36
2019-08-22 15:00:00 34.7 19 Este 40 Este 0 -- -- 40
2019-08-22 14:00:00 33.2 19 Este 36 Este 0 -- -- 44
2019-08-22 13:00:00 32.7 18 Este 40 Este 0 -- -- 44
2019-08-22 12:00:00 31.2 10 Este 28 Sudeste 0 -- -- 47
2019-08-22 11:00:00 29.4 6 Este 16 Nordeste 0 -- -- 53
2019-08-22 10:00:00 26.4 6 Nordeste 13 Nordeste 0 -- -- 61
2019-08-22 09:00:00 22.7 8 Nordeste 14 Nordeste 0 -- -- 75
2019-08-22 08:00:00 20.9 6 Norte 12 Norte 0 -- -- 81
2019-08-22 07:00:00 20 5 Norte 8 Norte 0 -- -- 85
2019-08-22 06:00:00 19.4 4 Norte 6 Norte 0 -- -- 84
2019-08-22 05:00:00 20.2 4 Norte 6 Norte 0 -- -- 81
2019-08-22 04:00:00 22.1 0 Calma 12 Oeste 0 -- -- 73
2019-08-22 03:00:00 23.3 7 Oeste 11 Sudoeste 0 -- -- 73
2019-08-22 02:00:00 23.1 3 Sudoeste 8 Sur 0 -- -- 73
2019-08-22 01:00:00 24.4 5 Sur 14 Noroeste 0 -- -- 68
2019-08-22 00:00:00 24.9 8 Noroeste 14 Noroeste 0 -- -- 67
2019-08-21 23:00:00 25.5 10 Oeste 14 Noroeste 0 -- -- 66
2019-08-21 22:00:00 26.2 6 Sudoeste 22 Sudoeste 0 -- -- 63
2019-08-21 21:00:00 27.9 10 Sudoeste 29 Sudoeste 0 -- -- 55
2019-08-21 20:00:00 30.5 18 Sudoeste 30 Oeste 0 -- -- 47
2019-08-21 19:00:00 33.3 14 Sudoeste 33 Oeste 0 -- -- 39
2019-08-21 18:00:00 35.6 15 Sudoeste 28 Sudoeste 0 -- -- 33
2019-08-21 17:00:00 35.9 8 Sur 24 Sudoeste 0 -- -- 27
2019-08-21 16:00:00 35 9 Sudeste 21 Sur 0 -- -- 29
2019-08-21 15:00:00 33.9 9 Sur 23 Sur 0 -- -- 31
2019-08-21 14:00:00 32.4 11 Sudeste 21 Sudeste 0 -- -- 37
2019-08-21 13:00:00 31 9 Sudeste 19 Sur 0 -- -- 40
2019-08-21 12:00:00 29.3 11 Sur 20 Sudeste 0 -- -- 46
2019-08-21 11:00:00 27.5 4 Sur 10 Sur 0 -- -- 53
2019-08-21 10:00:00 24.7 4 Noroeste 10 Norte 0 -- -- 59
2019-08-21 09:00:00 19.9 5 Norte 8 Noroeste 0 -- -- 66
2019-08-21 08:00:00 16.7 4 Norte 8 Norte 0 -- -- 67
2019-08-21 07:00:00 16.6 4 Norte 11 Norte 0 -- -- 67
2019-08-21 06:00:00 15.6 5 Norte 8 Norte 0 -- -- 65
2019-08-21 05:00:00 16.2 5 Norte 9 Norte 0 -- -- 64
2019-08-21 04:00:00 16.8 6 Nordeste 11 Este 0 -- -- 59
2019-08-21 03:00:00 15.8 3 Este 6 Este 0 -- -- 58
2019-08-21 02:00:00 16.3 3 Nordeste 5 Norte 0 -- -- 57
2019-08-21 01:00:00 17.1 3 Nordeste 6 Norte 0 -- -- 54
2019-08-21 00:00:00 17.5 3 Nordeste 4 Norte 0 -- -- 53
2019-08-20 23:00:00 19.2 2 Nordeste 5 Noroeste 0 -- -- 49
2019-08-20 22:00:00 21.6 2 Noroeste 13 Oeste 0 -- -- 45
2019-08-20 21:00:00 24.2 9 Oeste 24 Oeste 0 -- -- 39
2019-08-20 20:00:00 27.4 14 Sudoeste 28 Sudoeste 0 -- -- 36
2019-08-20 19:00:00 32 15 Sudoeste 26 Sur 0 -- -- 26
2019-08-20 18:00:00 33.7 17 Sur 39 Sur 0 -- -- 23
2019-08-20 17:00:00 35.1 5 Sudoeste 17 Sudoeste 0 -- -- 12
2019-08-20 16:00:00 34.1 7 Sur 18 Sur 0 -- -- 13
2019-08-20 15:00:00 32.8 10 Sur 22 Sur 0 -- -- 13
2019-08-20 14:00:00 31.4 9 Sur 19 Sur 0 -- -- 14
2019-08-20 13:00:00 29.5 8 Sur 18 Sudoeste 0 -- -- 23
2019-08-20 12:00:00 27.9 7 Sur 15 Sur 0 -- -- 25
2019-08-20 11:00:00 25.3 3 Noroeste 7 Noroeste 0 -- -- 30
2019-08-20 10:00:00 21.3 5 Noroeste 13 Noroeste 0 -- -- 44
2019-08-20 09:00:00 17.3 4 Noroeste 7 Noroeste 0 -- -- 58
2019-08-20 08:00:00 16.8 4 Noroeste 9 Noroeste 0 -- -- 58
2019-08-20 07:00:00 16.3 5 Norte 9 Norte 0 -- -- 55
2019-08-20 06:00:00 17.3 0 Calma 9 Norte 0 -- -- 50
2019-08-20 05:00:00 18.9 4 Noroeste 11 Norte 0 -- -- 47
2019-08-20 04:00:00 20.4 4 Noroeste 14 Noroeste 0 -- -- 45
2019-08-20 03:00:00 21.5 2 Noroeste 13 Oeste 0 -- -- 44
2019-08-20 02:00:00 23 5 Noroeste 25 Noroeste 0 -- -- 42
2019-08-20 01:00:00 24.2 12 Noroeste 30 Noroeste 0 -- -- 40
2019-08-20 00:00:00 25.3 15 Noroeste 28 Noroeste 0 -- -- 36
2019-08-19 23:00:00 23.3 6 Oeste 12 Sudoeste 0 -- -- 38
2019-08-19 22:00:00 25.5 6 Sudoeste 14 Sudoeste 0 -- -- 35
2019-08-19 21:00:00 27.9 10 Sudoeste 27 Sudoeste 0 -- -- 31
2019-08-19 20:00:00 30.1 15 Sudoeste 31 Sudoeste 0 -- -- 29
2019-08-19 19:00:00 30.8 16 Sudoeste 35 Sudoeste 0 -- -- 31
2019-08-19 18:00:00 33.1 18 Sudoeste 37 Sudoeste 0 -- -- 29
2019-08-19 17:00:00 34.8 18 Sudoeste 33 Sudoeste 0 -- -- 20
2019-08-19 16:00:00 34.7 16 Sudoeste 30 Sudoeste 0 -- -- 19
2019-08-19 15:00:00 34.2 16 Sudoeste 32 Oeste 0 -- -- 18
2019-08-19 14:00:00 32.4 12 Sudoeste 25 Sudoeste 0 -- -- 30
2019-08-19 13:00:00 30.5 11 Sur 19 Sur 0 -- -- 41
2019-08-19 12:00:00 28.6 8 Sur 16 Sur 0 -- -- 50
2019-08-19 11:00:00 26.9 6 Sur 13 Sudeste 0 -- -- 57
2019-08-19 10:00:00 24.1 0 Calma 6 Sudeste 0 -- -- 68
2019-08-19 09:00:00 20.8 0 Calma 6 Noroeste 0 -- -- 80
2019-08-19 08:00:00 19.5 4 Noroeste 10 Norte 0 -- -- 83
2019-08-19 07:00:00 18.5 6 Noroeste 9 Noroeste 0 -- -- 84
2019-08-19 06:00:00 19.5 5 Noroeste 6 Oeste 0 -- -- 81
2019-08-19 05:00:00 21.5 0 Calma 5 Oeste 0 -- -- 75
2019-08-19 04:00:00 23.5 5 Noroeste 14 Noroeste 0 -- -- 69
2019-08-19 03:00:00 24.7 9 Norte 22 Noroeste 0 -- -- 65
2019-08-19 02:00:00 25.1 10 Noroeste 26 Noroeste 0 -- -- 65
2019-08-19 01:00:00 26 13 Noroeste 26 Noroeste 0 -- -- 62
2019-08-19 00:00:00 23.7 10 Noroeste 15 Noroeste 0 -- -- 55
2019-08-18 23:00:00 25.2 5 Oeste 15 Oeste 0 -- -- 51
2019-08-18 22:00:00 26.6 8 Oeste 23 Sudoeste 0 -- -- 49
2019-08-18 21:00:00 27.8 13 Sudoeste 27 Sudoeste 0 -- -- 44
2019-08-18 20:00:00 30.3 15 Sudoeste 34 Sudoeste 0 -- -- 39
2019-08-18 19:00:00 32.2 17 Sudoeste 36 Sudoeste 0 -- -- 35
2019-08-18 18:00:00 34.9 21 Sudoeste 36 Sudoeste 0 -- -- 29
2019-08-18 17:00:00 36.8 17 Oeste 30 Oeste 0 -- -- 17
2019-08-18 16:00:00 36.9 16 Oeste 35 Noroeste 0 -- -- 20
2019-08-18 15:00:00 36 12 Sudoeste 28 Sudoeste 0 -- -- 22
2019-08-18 14:00:00 35 11 Sudoeste 25 Sur 0 -- -- 25
2019-08-18 13:00:00 33.3 7 Sudoeste 17 Sur 0 -- -- 31
2019-08-18 12:00:00 31.3 5 Sudoeste 12 Sudoeste 0 -- -- 37
2019-08-18 11:00:00 28.8 6 Sudoeste 13 Sudoeste 0 -- -- 41
2019-08-18 10:00:00 25.3 3 Noroeste 9 Oeste 0 -- -- 51
2019-08-18 09:00:00 20.4 2 Sur 5 Norte 0 -- -- 65
2019-08-18 08:00:00 18.1 3 Norte 6 Noroeste 0 -- -- 68
2019-08-18 07:00:00 20.6 0 Calma 10 Norte 0 -- -- 63
2019-08-18 06:00:00 23.7 6 Norte 17 Norte 0 -- -- 56
2019-08-18 05:00:00 20.4 8 Noroeste 13 Noroeste 0 -- -- 64
2019-08-18 04:00:00 21 6 Norte 13 Noroeste 0 -- -- 59
2019-08-18 03:00:00 22.6 10 Noroeste 15 Noroeste 0 -- -- 52
2019-08-18 02:00:00 21.6 3 Noroeste 8 Sur 0 -- -- 48
2019-08-18 01:00:00 25.3 2 Oeste 13 Oeste 0 -- -- 39
2019-08-18 00:00:00 25.8 7 Oeste 13 Oeste 0 -- -- 39
2019-08-17 23:00:00 27.5 8 Oeste 17 Oeste 0 -- -- 34
2019-08-17 22:00:00 29.6 9 Oeste 20 Sudoeste 0 -- -- 30
2019-08-17 21:00:00 32 13 Sudoeste 26 Sudoeste 0 -- -- 30
2019-08-17 20:00:00 34.9 20 Sudoeste 34 Sudoeste 0 -- -- 23
2019-08-17 19:00:00 35.9 15 Sudoeste 32 Sudoeste 0 -- -- 24
2019-08-17 18:00:00 37.7 17 Sudoeste 33 Sudoeste 0 -- -- 21
2019-08-17 17:00:00 38.8 18 Sudoeste 36 Oeste 0 -- -- 21
2019-08-17 16:00:00 39.1 8 Sudoeste 26 Sudoeste 0 -- -- 22
2019-08-17 15:00:00 37.9 8 Sudoeste 20 Sur 0 -- -- 23
2019-08-17 14:00:00 36.5 8 Sudoeste 18 Sudoeste 0 -- -- 25
2019-08-17 13:00:00 34.6 8 Sur 18 Sur 0 -- -- 28
2019-08-17 12:00:00 32.1 9 Sudeste 22 Sudeste 0 -- -- 32
2019-08-17 11:00:00 29.3 6 Sudeste 12 Sudeste 0 -- -- 37
2019-08-17 10:00:00 25.8 3 Sudeste 8 Este 0 -- -- 45
2019-08-17 09:00:00 20.4 3 Sudeste 5 Norte 0 -- -- 60
2019-08-17 08:00:00 16.6 4 Norte 5 Norte 0 -- -- 70
2019-08-17 07:00:00 17.4 2 Nordeste 5 Norte 0 -- -- 68
2019-08-17 06:00:00 18 4 Norte 8 Noroeste 0 -- -- 68
2019-08-17 05:00:00 17.9 5 Noroeste 5 Noroeste 0 -- -- 67
2019-08-17 04:00:00 19.5 3 Sudeste 5 Oeste 0 -- -- 63
2019-08-17 03:00:00 19.5 4 Oeste 5 Oeste 0 -- -- 61
2019-08-17 02:00:00 19.6 3 Noroeste 4 Norte 0 -- -- 63
2019-08-17 01:00:00 20.5 3 Noroeste 3 Noroeste 0 -- -- 61
2019-08-17 00:00:00 22 0 Calma 3 Noroeste 0 -- -- 55
2019-08-16 23:00:00 24.5 3 Noroeste 8 Oeste 0 -- -- 48
2019-08-16 22:00:00 26.9 4 Sudoeste 18 Sudoeste 0 -- -- 43
2019-08-16 21:00:00 29.2 9 Sudoeste 24 Sudoeste 0 -- -- 39
2019-08-16 20:00:00 31.5 13 Sudoeste 31 Sudoeste 0 -- -- 34
2019-08-16 19:00:00 33.2 16 Sudoeste 31 Sudoeste 0 -- -- 32
2019-08-16 18:00:00 34.9 19 Sudoeste 38 Oeste 0 -- -- 30
2019-08-16 17:00:00 37.4 14 Sudoeste 26 Sudoeste 0 -- -- 25
2019-08-16 16:00:00 37.1 15 Sudoeste 30 Sudoeste 0 -- -- 25
2019-08-16 15:00:00 37 13 Sur 26 Sudoeste 0 -- -- 23
2019-08-16 14:00:00 35.3 11 Sudoeste 21 Sur 0 -- -- 29
2019-08-16 13:00:00 33.4 9 Sur 21 Sur 0 -- -- 31
2019-08-16 12:00:00 31.5 10 Sur 22 Sur 0 -- -- 33
2019-08-16 11:00:00 29 5 Sudeste 14 Este 0 -- -- 39
2019-08-16 10:00:00 26.2 3 Este 12 Sudeste 0 -- -- 43
2019-08-16 09:00:00 21.4 4 Sur 5 Sudeste 0 -- -- 53
2019-08-16 08:00:00 17.7 4 Norte 6 Noroeste 0 -- -- 63
2019-08-16 07:00:00 18.1 0 Calma 6 Nordeste 0 -- -- 62
2019-08-16 06:00:00 19.5 3 Este 8 Noroeste 0 -- -- 56
2019-08-16 05:00:00 19.1 5 Noroeste 8 Noroeste 0 -- -- 59
2019-08-16 04:00:00 20.2 4 Norte 7 Este 0 -- -- 54
2019-08-16 03:00:00 21.4 2 Sudoeste 8 Noroeste 0 -- -- 51
2019-08-16 02:00:00 21.1 6 Noroeste 9 Noroeste 0 -- -- 52
2019-08-16 01:00:00 22.1 0 Calma 6 Norte 0 -- -- 49
2019-08-16 00:00:00 23.3 3 Norte 4 Norte 0 -- -- 49
2019-08-15 23:00:00 27 0 Calma 13 Oeste 0 -- -- 41
2019-08-15 22:00:00 28.6 10 Sudoeste 24 Sudoeste 0 -- -- 38
2019-08-15 21:00:00 30.7 15 Sudoeste 30 Sudoeste 0 -- -- 34
2019-08-15 20:00:00 32.7 18 Sudoeste 32 Oeste 0 -- -- 30
2019-08-15 19:00:00 34.2 17 Sudoeste 32 Sudoeste 0 -- -- 29
2019-08-15 18:00:00 35.8 17 Sudoeste 30 Oeste 0 -- -- 26
2019-08-15 17:00:00 37.3 15 Sudoeste 27 Sur 0 -- -- 24
2019-08-15 16:00:00 37.4 12 Sudoeste 30 Sur 0 -- -- 24
2019-08-15 15:00:00 36.9 15 Sudoeste 28 Sur 0 -- -- 28
2019-08-15 14:00:00 36.2 9 Sudeste 19 Sur 0 -- -- 26
2019-08-15 13:00:00 34.4 8 Sur 16 Sudeste 0 -- -- 29
2019-08-15 12:00:00 31.9 6 Sur 10 Sur 0 -- -- 35
2019-08-15 11:00:00 29.7 6 Sudeste 10 Sudeste 0 -- -- 40
2019-08-15 10:00:00 26.8 4 Este 8 Nordeste 0 -- -- 48
2019-08-15 09:00:00 22.6 6 Nordeste 11 Norte 0 -- -- 56
2019-08-15 08:00:00 17.8 6 Norte 10 Nordeste 0 -- -- 74
2019-08-15 07:00:00 18.1 5 Nordeste 9 Norte 0 -- -- 72
2019-08-15 06:00:00 17.9 3 Norte 8 Nordeste 0 -- -- 70
2019-08-15 05:00:00 18.3 5 Norte 8 Este 0 -- -- 68
2019-08-15 04:00:00 20.2 2 Este 10 Nordeste 0 -- -- 61
2019-08-15 03:00:00 22.2 4 Nordeste 15 Norte 0 -- -- 55
2019-08-15 02:00:00 20.2 8 Norte 11 Norte 0 -- -- 62
2019-08-15 01:00:00 21.2 4 Noroeste 8 Oeste 0 -- -- 66
2019-08-15 00:00:00 21.9 4 Noroeste 5 Noroeste 0 -- -- 64
2019-08-14 23:00:00 24.3 3 Noroeste 7 Sudoeste 0 -- -- 58
2019-08-14 22:00:00 27.8 5 Sudoeste 16 Sudoeste 0 -- -- 50
2019-08-14 21:00:00 30.2 10 Sudoeste 28 Oeste 0 -- -- 42
2019-08-14 20:00:00 32.2 18 Sudoeste 30 Sudoeste 0 -- -- 39
2019-08-14 19:00:00 35.2 15 Sudoeste 32 Oeste 0 -- -- 33
2019-08-14 18:00:00 37.5 10 Sudoeste 24 Oeste 0 -- -- 24
2019-08-14 17:00:00 36.8 9 Oeste 22 Sudoeste 0 -- -- 25
2019-08-14 16:00:00 36.5 6 Nordeste 22 Sudoeste 0 -- -- 24
2019-08-14 15:00:00 35 9 Sur 21 Sudoeste 0 -- -- 26
2019-08-14 14:00:00 33.6 8 Sudeste 19 Sudeste 0 -- -- 29
2019-08-14 13:00:00 31.7 6 Norte 15 Este 0 -- -- 34
2019-08-14 12:00:00 29.8 6 Sudeste 18 Este 0 -- -- 43
2019-08-14 11:00:00 27.8 5 Sudoeste 11 Sudoeste 0 -- -- 51
2019-08-14 10:00:00 25.6 3 Este 9 Este 0 -- -- 41
2019-08-14 09:00:00 19.6 3 Nordeste 8 Nordeste 0 -- -- 51
2019-08-14 08:00:00 15.2 5 Nordeste 9 Nordeste 0 -- -- 55
2019-08-14 07:00:00 14.2 4 Nordeste 7 Nordeste 0 -- -- 54
2019-08-14 06:00:00 15.6 3 Norte 10 Nordeste 0 -- -- 49
2019-08-14 05:00:00 15.3 6 Norte 9 Norte 0 -- -- 49
2019-08-14 04:00:00 16.1 4 Nordeste 9 Nordeste 0 -- -- 48
2019-08-14 03:00:00 16.5 3 Norte 8 Oeste 0 -- -- 49
2019-08-14 02:00:00 16.8 4 Norte 6 Nordeste 0 -- -- 48
2019-08-14 01:00:00 17.9 3 Este 8 Norte 0 -- -- 45
2019-08-14 00:00:00 19 4 Noroeste 7 Noroeste 0 -- -- 43
2019-08-13 23:00:00 21.7 3 Norte 9 Oeste 0 -- -- 37
2019-08-13 22:00:00 25.4 6 Sudoeste 14 Sudoeste 0 -- -- 31
2019-08-13 21:00:00 27.4 12 Sudoeste 27 Sudoeste 0 -- -- 27
2019-08-13 20:00:00 30.7 17 Sudoeste 34 Sudoeste 0 -- -- 23
2019-08-13 19:00:00 34.3 20 Oeste 30 Sudoeste 0 -- -- 20
2019-08-13 18:00:00 35.5 15 Oeste 29 Oeste 0 -- -- 16
2019-08-13 17:00:00 35.7 18 Oeste 28 Oeste 0 -- -- 16
2019-08-13 16:00:00 35.9 13 Sur 24 Sudoeste 0 -- -- 14
2019-08-13 15:00:00 34.8 8 Sudoeste 20 Sudoeste 0 -- -- 16
2019-08-13 14:00:00 33.8 8 Sur 20 Sudoeste 0 -- -- 16
2019-08-13 13:00:00 32.3 9 Oeste 18 Sur 0 -- -- 17
2019-08-13 12:00:00 30.1 7 Sur 16 Sudeste 0 -- -- 20
2019-08-13 11:00:00 28.3 5 Sudoeste 10 Sudoeste 0 -- -- 22
2019-08-13 10:00:00 23.9 2 Noroeste 4 Oeste 0 -- -- 26
2019-08-13 09:00:00 17.9 0 Calma 7 Sudeste 0 -- -- 39
2019-08-13 08:00:00 15.2 3 Este 8 Este 0 -- -- 38
2019-08-13 07:00:00 15.3 0 Calma 4 Oeste 0 -- -- 37
2019-08-13 06:00:00 17.2 2 Oeste 8 Noroeste 0 -- -- 33
2019-08-13 05:00:00 19.6 5 Sudoeste 10 Noroeste 0 -- -- 28
2019-08-13 04:00:00 23.5 6 Norte 17 Norte 0 -- -- 22
2019-08-13 03:00:00 24.1 12 Noroeste 19 Norte 0 -- -- 23
2019-08-13 02:00:00 25.3 12 Norte 19 Noroeste 0 -- -- 21
2019-08-13 01:00:00 26.2 8 Norte 15 Noroeste 0 -- -- 21
2019-08-13 00:00:00 26.7 9 Norte 17 Norte 0 -- -- 21
2019-08-12 23:00:00 27.8 9 Norte 17 Norte 0 -- -- 19
2019-08-12 22:00:00 28.3 9 Norte 16 Norte 0 -- -- 18
2019-08-12 21:00:00 29.9 7 Norte 26 Noroeste 0 -- -- 17
2019-08-12 20:00:00 32.8 6 Norte 26 Noroeste 0 -- -- 15
2019-08-12 19:00:00 33.3 9 Norte 27 Norte 0 -- -- 14
2019-08-12 18:00:00 32.8 12 Nordeste 32 Nordeste 0 -- -- 15
2019-08-12 17:00:00 33.2 9 Norte 28 Noroeste 0 -- -- 15
2019-08-12 16:00:00 32.4 9 Nordeste 29 Norte 0 -- -- 15
2019-08-12 15:00:00 31.5 17 Norte 31 Noroeste 0 -- -- 17
2019-08-12 14:00:00 30.3 13 Norte 30 Norte 0 -- -- 17
2019-08-12 13:00:00 28.9 13 Norte 32 Norte 0 -- -- 21
2019-08-12 12:00:00 27.3 12 Norte 28 Norte 0 -- -- 24
2019-08-12 11:00:00 25.1 9 Nordeste 17 Nordeste 0 -- -- 31
2019-08-12 10:00:00 22.2 6 Nordeste 17 Nordeste 0 -- -- 41
2019-08-12 09:00:00 17.6 2 Noroeste 7 Noroeste 0 -- -- 56
2019-08-12 08:00:00 15.7 4 Noroeste 12 Noroeste 0 -- -- 60
2019-08-12 07:00:00 17 6 Noroeste 11 Noroeste 0 -- -- 57
2019-08-12 06:00:00 18.4 8 Noroeste 23 Norte 0 -- -- 53
2019-08-12 05:00:00 19.1 13 Noroeste 27 Noroeste 0 -- -- 51
2019-08-12 04:00:00 19.5 15 Noroeste 26 Noroeste 0 -- -- 49
2019-08-12 03:00:00 20.7 16 Noroeste 36 Norte 0 -- -- 44
2019-08-12 02:00:00 21.8 18 Noroeste 34 Noroeste 0 -- -- 41
2019-08-12 01:00:00 23 18 Noroeste 32 Noroeste 0 -- -- 37
2019-08-12 00:00:00 23.3 10 Noroeste 23 Noroeste 0 -- -- 35
2019-08-11 23:00:00 24.1 12 Noroeste 20 Noroeste 0 -- -- 32
2019-08-11 22:00:00 25.2 10 Norte 24 Norte 0 -- -- 28
2019-08-11 21:00:00 26.8 17 Noroeste 35 Noroeste 0 -- -- 27
2019-08-11 20:00:00 28.9 21 Noroeste 35 Noroeste 0 -- -- 25
2019-08-11 19:00:00 30.6 16 Noroeste 36 Noroeste 0 -- -- 22
2019-08-11 18:00:00 31.1 17 Noroeste 34 Noroeste 0 -- -- 19
2019-08-11 17:00:00 30.9 18 Noroeste 38 Noroeste 0 -- -- 18
2019-08-11 16:00:00 31.1 16 Noroeste 33 Noroeste 0 -- -- 19
2019-08-11 15:00:00 30.5 17 Norte 31 Norte 0 -- -- 22
2019-08-11 14:00:00 28.5 17 Noroeste 33 Noroeste 0 -- -- 25
2019-08-11 13:00:00 27.5 18 Noroeste 37 Noroeste 0 -- -- 26
2019-08-11 12:00:00 25.8 16 Noroeste 33 Noroeste 0 -- -- 30
2019-08-11 11:00:00 23.4 13 Noroeste 25 Norte 0 -- -- 36
2019-08-11 10:00:00 21.4 13 Noroeste 30 Norte 0 -- -- 43
2019-08-11 09:00:00 19.7 8 Noroeste 23 Noroeste 0 -- -- 52
2019-08-11 08:00:00 18.4 8 Norte 26 Norte 0 -- -- 56
2019-08-11 07:00:00 18.7 10 Noroeste 25 Norte 0 -- -- 56
2019-08-11 06:00:00 19.3 12 Noroeste 32 Noroeste 0 -- -- 55
2019-08-11 05:00:00 19.7 14 Noroeste 22 Noroeste 0 -- -- 56
2019-08-11 04:00:00 20.9 9 Norte 36 Noroeste 0 -- -- 52
2019-08-11 03:00:00 21.4 14 Noroeste 32 Noroeste 0 -- -- 53
2019-08-11 02:00:00 22.4 18 Noroeste 35 Noroeste 0 -- -- 51
2019-08-11 01:00:00 23.3 15 Noroeste 28 Norte 0 -- -- 50
2019-08-11 00:00:00 24.5 14 Noroeste 31 Noroeste 0 -- -- 47
2019-08-10 23:00:00 26.6 15 Noroeste 27 Noroeste 0 -- -- 40
2019-08-10 22:00:00 28.7 9 Noroeste 27 Oeste 0 -- -- 25
2019-08-10 21:00:00 31.5 15 Oeste 30 Oeste 0 -- -- 21
2019-08-10 20:00:00 32.9 15 Oeste 31 Sudoeste 0 -- -- 18
2019-08-10 19:00:00 34 12 Sudoeste 31 Sudoeste 0 -- -- 25
2019-08-10 18:00:00 34.8 14 Sudoeste 29 Sudoeste 0 -- -- 22
2019-08-10 17:00:00 34.5 13 Sudoeste 26 Sur 0 -- -- 25
2019-08-10 16:00:00 33.8 13 Sudoeste 27 Sudoeste 0 -- -- 26
2019-08-10 15:00:00 32.8 9 Sudoeste 22 Sudoeste 0 -- -- 30
2019-08-10 14:00:00 31.4 7 Sur 30 Sudoeste 0 -- -- 36
2019-08-10 13:00:00 30.3 8 Sur 22 Sur 0 -- -- 41
2019-08-10 12:00:00 29 8 Sudoeste 19 Sudoeste 0 -- -- 44
2019-08-10 11:00:00 27.6 5 Sudeste 13 Sur 0 -- -- 48
2019-08-10 10:00:00 25 6 Noroeste 15 Noroeste 0 -- -- 56
2019-08-10 09:00:00 21.9 4 Noroeste 13 Noroeste 0 -- -- 67
2019-08-10 08:00:00 19.3 4 Norte 8 Norte 0 -- -- 77
2019-08-10 07:00:00 20 3 Este 12 Norte 0 -- -- 75
2019-08-10 06:00:00 19.7 6 Noroeste 9 Noroeste 0 -- -- 77
2019-08-10 05:00:00 20.8 3 Noroeste 6 Noroeste 0 -- -- 74
2019-08-10 04:00:00 22.2 2 Noroeste 12 Noroeste 0 -- -- 69
2019-08-10 03:00:00 23.3 3 Noroeste 16 Noroeste 0 -- -- 67
2019-08-10 02:00:00 24.3 10 Noroeste 23 Noroeste 0 -- -- 66
2019-08-10 01:00:00 25.2 13 Noroeste 26 Noroeste 0 -- -- 65
2019-08-10 00:00:00 25.3 10 Noroeste 19 Noroeste 0 -- -- 65
2019-08-09 23:00:00 24.1 8 Oeste 13 Oeste 0 -- -- 76
2019-08-09 22:00:00 24.8 5 Sudoeste 21 Oeste 0 -- -- 74
2019-08-09 21:00:00 26.8 12 Sudoeste 28 Sudoeste 0 -- -- 67
2019-08-09 20:00:00 29 15 Sudoeste 33 Sudoeste 0 -- -- 60
2019-08-09 19:00:00 29.4 16 Sudoeste 32 Sudoeste 0 -- -- 59
2019-08-09 18:00:00 30.2 19 Sudoeste 35 Sur 0 -- -- 56
2019-08-09 17:00:00 31.4 17 Sudoeste 34 Oeste 0 -- -- 52
2019-08-09 16:00:00 31.2 20 Sudoeste 35 Sudoeste 0 -- -- 50
2019-08-09 15:00:00 33.1 13 Oeste 28 Sudoeste 0 -- -- 42
2019-08-09 14:00:00 32.1 13 Sudoeste 27 Sudoeste 0 -- -- 41
2019-08-09 13:00:00 30.5 9 Sur 27 Noroeste 0 -- -- 45
2019-08-09 12:00:00 28.2 8 Oeste 20 Oeste 0 -- -- 53
2019-08-09 11:00:00 26.3 11 Noroeste 20 Oeste 0 -- -- 64
2019-08-09 10:00:00 24.5 9 Oeste 17 Oeste 0 -- -- 72
2019-08-09 09:00:00 21.6 9 Noroeste 14 Oeste 0 -- -- 84
2019-08-09 08:00:00 19.3 5 Noroeste 9 Oeste 0 -- -- 90
2019-08-09 07:00:00 19.4 3 Sudoeste 6 Oeste 0 -- -- 84
2019-08-09 06:00:00 20 3 Noroeste 6 Sudoeste 0 -- -- 85
2019-08-09 05:00:00 19.8 4 Oeste 6 Oeste 0 -- -- 83
2019-08-09 04:00:00 20 2 Noroeste 6 Sur 0 -- -- 81
2019-08-09 03:00:00 20.6 4 Sudoeste 6 Sudoeste 0 -- -- 76
2019-08-09 02:00:00 20.9 2 Oeste 7 Sudoeste 0 -- -- 71
2019-08-09 01:00:00 21.3 5 Oeste 10 Oeste 0 -- -- 71
2019-08-09 00:00:00 21.6 3 Norte 10 Sudoeste 0 -- -- 69
2019-08-08 23:00:00 23 4 Oeste 9 Sudoeste 0 -- -- 68
2019-08-08 22:00:00 24.2 5 Sudoeste 18 Sudoeste 0 -- -- 61
2019-08-08 21:00:00 26.6 11 Sudoeste 35 Oeste 0 -- -- 53
2019-08-08 20:00:00 29.1 14 Sudoeste 29 Sudoeste 0 -- -- 41
2019-08-08 19:00:00 30.8 19 Sudoeste 31 Sudoeste 0 -- -- 37
2019-08-08 18:00:00 32.4 19 Sudoeste 31 Oeste 0 -- -- 31
2019-08-08 17:00:00 33.8 19 Sudoeste 33 Oeste 0 -- -- 33
2019-08-08 16:00:00 34.6 16 Sudoeste 33 Sudoeste 0 -- -- 30
2019-08-08 15:00:00 34.9 15 Sudoeste 26 Oeste 0 -- -- 26
2019-08-08 14:00:00 33.8 9 Sudoeste 26 Sudoeste 0 -- -- 28
2019-08-08 13:00:00 32.5 7 Sudoeste 20 Oeste 0 -- -- 31
2019-08-08 12:00:00 30.8 7 Sur 18 Sudoeste 0 -- -- 37
2019-08-08 11:00:00 29.1 5 Sudeste 13 Sudeste 0 -- -- 40
2019-08-08 10:00:00 26.2 4 Sudeste 8 Este 0 -- -- 48
2019-08-08 09:00:00 21.9 6 Norte 9 Norte 0 -- -- 64
2019-08-08 08:00:00 18.9 0 Calma 8 Sudeste 0 -- -- 72
2019-08-08 07:00:00 20.4 3 Norte 8 Noroeste 0 -- -- 68
2019-08-08 06:00:00 21.6 5 Norte 14 Noroeste 0 -- -- 65
2019-08-08 05:00:00 22.5 10 Noroeste 16 Norte 0 -- -- 62
2019-08-08 04:00:00 22.7 8 Noroeste 13 Noroeste 0 -- -- 60
2019-08-08 03:00:00 23.5 4 Sur 11 Noroeste 0 -- -- 54
2019-08-08 02:00:00 24.3 8 Noroeste 14 Noroeste 0 -- -- 49
2019-08-08 01:00:00 25.4 7 Noroeste 19 Noroeste 0 -- -- 47
2019-08-08 00:00:00 26.3 9 Noroeste 15 Noroeste 0 -- -- 45
2019-08-07 23:00:00 27 8 Noroeste 13 Oeste 0 -- -- 44
2019-08-07 22:00:00 28.5 5 Oeste 21 Noroeste 0 -- -- 42
2019-08-07 21:00:00 30.4 11 Noroeste 29 Oeste 0 -- -- 39
2019-08-07 20:00:00 30.6 18 Noroeste 39 Oeste 0 -- -- 38
2019-08-07 19:00:00 32.4 18 Sudoeste 32 Sudoeste 0 -- -- 37
2019-08-07 18:00:00 34.8 13 Sudoeste 28 Sudoeste 0 -- -- 32
2019-08-07 17:00:00 34.1 15 Noroeste 27 Oeste 0 -- -- 28
2019-08-07 16:00:00 34 6 Noroeste 20 Sur 0 -- -- 28
2019-08-07 15:00:00 33.2 10 Sudoeste 23 Sudoeste 0 -- -- 31
2019-08-07 14:00:00 30.8 10 Sur 23 Sudoeste 0 -- -- 38
2019-08-07 13:00:00 30.7 6 Sur 12 Sur 0 -- -- 39
2019-08-07 12:00:00 28.4 4 Noroeste 13 Sur 0 -- -- 48
2019-08-07 11:00:00 26.4 6 Sur 13 Sudeste 0 -- -- 55
2019-08-07 10:00:00 23.4 0 Calma 6 Este 0 -- -- 64
2019-08-07 09:00:00 19.7 0 Calma 8 Noroeste 0 -- -- 77
2019-08-07 08:00:00 19.1 4 Este 13 Noroeste 0 -- -- 78
2019-08-07 07:00:00 19.6 9 Noroeste 13 Noroeste 0 -- -- 78
2019-08-07 06:00:00 19.3 4 Noroeste 5 Noroeste 0 -- -- 74
2019-08-07 05:00:00 21.3 2 Oeste 7 Sudeste 0 -- -- 69
2019-08-07 04:00:00 23.3 3 Norte 12 Noroeste 0 -- -- 62
2019-08-07 03:00:00 24.5 2 Oeste 19 Noroeste 0 -- -- 59
2019-08-07 02:00:00 25.4 14 Noroeste 30 Noroeste 0 -- -- 56
2019-08-07 01:00:00 26.1 15 Noroeste 25 Noroeste 0 -- -- 51
2019-08-07 00:00:00 23.2 6 Noroeste 12 Oeste 0 -- -- 47
2019-08-06 23:00:00 25.5 4 Noroeste 11 Oeste 0 -- -- 42
2019-08-06 22:00:00 27.8 9 Sudoeste 17 Sudoeste 0 -- -- 36
2019-08-06 21:00:00 29.7 13 Sudoeste 22 Sudoeste 0 -- -- 32
2019-08-06 20:00:00 31.7 13 Sudoeste 28 Sudoeste 0 -- -- 29
2019-08-06 19:00:00 33.6 17 Sudoeste 31 Oeste 0 -- -- 27
2019-08-06 18:00:00 35 18 Sudoeste 29 Sudoeste 0 -- -- 23
2019-08-06 17:00:00 35.9 14 Sudoeste 30 Sudoeste 0 -- -- 24
2019-08-06 16:00:00 36.1 12 Sudoeste 24 Sur 0 -- -- 18
2019-08-06 15:00:00 34.9 5 Oeste 21 Oeste 0 -- -- 22
2019-08-06 14:00:00 33.5 8 Sudoeste 18 Sudeste 0 -- -- 26
2019-08-06 13:00:00 31.5 8 Sur 16 Sudeste 0 -- -- 34
2019-08-06 12:00:00 29 9 Sudeste 18 Sudeste 0 -- -- 39
2019-08-06 11:00:00 26.3 6 Sudeste 21 Sudeste 0 -- -- 43
2019-08-06 10:00:00 23.2 3 Sudeste 10 Sudeste 0 -- -- 49
2019-08-06 09:00:00 18.6 4 Noroeste 8 Noroeste 0 -- -- 66
2019-08-06 08:00:00 15 2 Nordeste 11 Sudeste 0 -- -- 71
2019-08-06 07:00:00 15.9 3 Este 10 Sudeste 0 -- -- 70
2019-08-06 06:00:00 16.1 4 Norte 10 Noroeste 0 -- -- 66
2019-08-06 05:00:00 15.4 4 Nordeste 6 Norte 0 -- -- 67
2019-08-06 04:00:00 16.4 3 Este 5 Sudeste 0 -- -- 65
2019-08-06 03:00:00 17.3 0 Calma 4 Sudeste 0 -- -- 61
2019-08-06 02:00:00 19.3 3 Este 10 Este 0 -- -- 46
2019-08-06 01:00:00 20.6 3 Sur 9 Oeste 0 -- -- 40
2019-08-06 00:00:00 19.9 6 Noroeste 9 Noroeste 0 -- -- 49
2019-08-05 23:00:00 22.6 5 Noroeste 12 Sudoeste 0 -- -- 45
2019-08-05 22:00:00 27.2 10 Sudoeste 18 Oeste 0 -- -- 36
2019-08-05 21:00:00 29.8 9 Sudoeste 26 Sudoeste 0 -- -- 31
2019-08-05 20:00:00 31.6 14 Sudoeste 33 Sudoeste 0 -- -- 27
2019-08-05 19:00:00 33.2 18 Sudoeste 35 Sudoeste 0 -- -- 24
2019-08-05 18:00:00 34.6 19 Sudoeste 36 Sudoeste 0 -- -- 23
2019-08-05 17:00:00 35.7 18 Sudoeste 36 Sudoeste 0 -- -- 22
2019-08-05 16:00:00 36.4 13 Sudoeste 31 Oeste 0 -- -- 22
2019-08-05 15:00:00 35.7 12 Sudoeste 28 Oeste 0 -- -- 22
2019-08-05 14:00:00 34.8 10 Sudoeste 23 Sudoeste 0 -- -- 25
2019-08-05 13:00:00 33.2 9 Sudoeste 20 Sudoeste 0 -- -- 29
2019-08-05 12:00:00 30.5 7 Sur 16 Sudoeste 0 -- -- 36
2019-08-05 11:00:00 28.5 3 Noroeste 9 Este 0 -- -- 41
2019-08-05 10:00:00 25 0 Calma 8 Este 0 -- -- 50
2019-08-05 09:00:00 20.4 3 Norte 9 Norte 0 -- -- 62
2019-08-05 08:00:00 16.8 3 Este 5 Este 0 -- -- 71
2019-08-05 07:00:00 19 0 Calma 10 Noroeste 0 -- -- 64
2019-08-05 06:00:00 18.8 5 Noroeste 8 Noroeste 0 -- -- 66
2019-08-05 05:00:00 19.6 5 Noroeste 8 Noroeste 0 -- -- 63
2019-08-05 04:00:00 21.2 5 Oeste 9 Oeste 0 -- -- 58
2019-08-05 03:00:00 23.4 5 Noroeste 9 Noroeste 0 -- -- 52
2019-08-05 02:00:00 25.7 4 Noroeste 17 Norte 0 -- -- 46
2019-08-05 01:00:00 26.8 12 Noroeste 27 Noroeste 0 -- -- 43
2019-08-05 00:00:00 27.8 13 Noroeste 28 Noroeste 0 -- -- 41
2019-08-04 23:00:00 27.1 10 Noroeste 18 Noroeste 0 -- -- 42
2019-08-04 22:00:00 27.6 6 Sudoeste 12 Sudoeste 0 -- -- 44
2019-08-04 21:00:00 30.2 8 Sudoeste 26 Sudoeste 0 -- -- 39
2019-08-04 20:00:00 30.9 15 Sudoeste 35 Sudoeste 0 -- -- 37
2019-08-04 19:00:00 32.6 22 Sudoeste 37 Sudoeste 0 -- -- 33
2019-08-04 18:00:00 35.3 17 Sudoeste 36 Sudoeste 0 -- -- 29
2019-08-04 17:00:00 36.8 17 Sudoeste 33 Oeste 0 -- -- 25
2019-08-04 16:00:00 36.2 8 Sudoeste 28 Oeste 0 -- -- 23
2019-08-04 15:00:00 35.1 9 Sur 25 Sudoeste 0 -- -- 27
2019-08-04 14:00:00 33.6 9 Sur 20 Sur 0 -- -- 33
2019-08-04 13:00:00 31.3 7 Sur 15 Sur 0 -- -- 38
2019-08-04 12:00:00 29.1 5 Sur 14 Sur 0 -- -- 43
2019-08-04 11:00:00 26.8 5 Sudeste 14 Este 0 -- -- 48
2019-08-04 10:00:00 23.6 2 Nordeste 8 Sudeste 0 -- -- 57
2019-08-04 09:00:00 19.1 0 Calma 5 Noroeste 0 -- -- 72
2019-08-04 08:00:00 14.9 3 Norte 6 Nordeste 0 -- -- 82
2019-08-04 07:00:00 15.7 2 Nordeste 8 Este 0 -- -- 82
2019-08-04 06:00:00 16.5 2 Norte 5 Este 0 -- -- 85
2019-08-04 05:00:00 16.2 4 Noroeste 5 Oeste 0 -- -- 80
2019-08-04 04:00:00 16.5 4 Noroeste 5 Noroeste 0 -- -- 77
2019-08-04 03:00:00 17.2 2 Oeste 3 Oeste 0 -- -- 75
2019-08-04 02:00:00 18.2 0 Calma 3 Noroeste 0 -- -- 70
2019-08-04 01:00:00 19.6 0 Calma 5 Noroeste 0 -- -- 68
2019-08-04 00:00:00 19.8 2 Noroeste 4 Norte 0 -- -- 63
2019-08-03 23:00:00 22.2 3 Noroeste 11 Sudoeste 0 -- -- 55
2019-08-03 22:00:00 24.3 6 Sudoeste 17 Sudoeste 0 -- -- 49
2019-08-03 21:00:00 28.1 10 Sudoeste 25 Sudoeste 0 -- -- 40
2019-08-03 20:00:00 30.5 17 Sudoeste 26 Sudoeste 0 -- -- 34
2019-08-03 19:00:00 32.7 15 Sudoeste 28 Oeste 0 -- -- 29
2019-08-03 18:00:00 34.3 15 Sudoeste 33 Sur 0 -- -- 26
2019-08-03 17:00:00 34.4 12 Sudoeste 26 Sudoeste 0 -- -- 26
2019-08-03 16:00:00 34.5 12 Sudoeste 30 Sudoeste 0 -- -- 28
2019-08-03 15:00:00 33.5 9 Sur 23 Sudoeste 0 -- -- 29
2019-08-03 14:00:00 32.1 8 Sudoeste 21 Sudoeste 0 -- -- 34
2019-08-03 13:00:00 30.3 8 Sur 18 Sur 0 -- -- 38
2019-08-03 12:00:00 28.5 8 Sur 17 Este 0 -- -- 44
2019-08-03 11:00:00 26.3 8 Sudeste 17 Este 0 -- -- 45
2019-08-03 10:00:00 23.6 6 Sudeste 14 Sudeste 0 -- -- 48
2019-08-03 09:00:00 19.6 5 Nordeste 9 Este 0 -- -- 60
2019-08-03 08:00:00 15.2 3 Este 9 Este 0 -- -- 77
2019-08-03 07:00:00 15.4 4 Nordeste 6 Nordeste 0 -- -- 78
2019-08-03 06:00:00 16.3 2 Noroeste 4 Noroeste 0 -- -- 81
2019-08-03 05:00:00 16.5 4 Noroeste 7 Noroeste 0 -- -- 74
2019-08-03 04:00:00 16.6 0 Calma 3 Sur 0 -- -- 63
2019-08-03 03:00:00 17.6 0 Calma 4 Sudoeste 0 -- -- 56
2019-08-03 02:00:00 18.2 0 Calma 5 Oeste 0 -- -- 52
2019-08-03 01:00:00 19 0 Calma 5 Noroeste 0 -- -- 51
2019-08-03 00:00:00 19.9 5 Noroeste 6 Noroeste 0 -- -- 50
2019-08-02 23:00:00 22.3 4 Norte 9 Sudoeste 0 -- -- 42
2019-08-02 22:00:00 26.6 6 Oeste 18 Sudoeste 0 -- -- 35
2019-08-02 21:00:00 28.6 11 Sudoeste 26 Sudoeste 0 -- -- 30
2019-08-02 20:00:00 30.3 14 Sudoeste 31 Sudoeste 0 -- -- 30
2019-08-02 19:00:00 32.1 16 Sudoeste 32 Sudoeste 0 -- -- 29
2019-08-02 18:00:00 34.1 20 Sudoeste 34 Sudoeste 0 -- -- 25
2019-08-02 17:00:00 35.8 17 Sudoeste 35 Sudoeste 0 -- -- 20
2019-08-02 16:00:00 35.9 13 Sudoeste 26 Sudoeste 0 -- -- 16
2019-08-02 15:00:00 34.8 10 Oeste 23 Sudoeste 0 -- -- 17
2019-08-02 14:00:00 33.6 9 Oeste 24 Sudoeste 0 -- -- 19
2019-08-02 13:00:00 32.2 8 Sudoeste 18 Sudoeste 0 -- -- 23
2019-08-02 12:00:00 30.1 4 Sudeste 14 Sudoeste 0 -- -- 28
2019-08-02 11:00:00 27.6 4 Sudoeste 10 Sur 0 -- -- 33
2019-08-02 10:00:00 24.6 3 Sur 6 Sur 0 -- -- 41
2019-08-02 09:00:00 19.9 0 Calma 6 Nordeste 0 -- -- 55
2019-08-02 08:00:00 15.7 5 Norte 6 Norte 0 -- -- 65
2019-08-02 07:00:00 17.1 0 Calma 4 Noroeste 0 -- -- 60
2019-08-02 06:00:00 20.1 0 Calma 13 Noroeste 0 -- -- 52
2019-08-02 05:00:00 22 4 Noroeste 14 Noroeste 0 -- -- 48
2019-08-02 04:00:00 23.2 4 Noroeste 14 Norte 0 -- -- 44
2019-08-02 03:00:00 24.6 8 Noroeste 21 Noroeste 0 -- -- 40
2019-08-02 02:00:00 25.7 12 Noroeste 28 Noroeste 0 -- -- 37
2019-08-02 01:00:00 26.8 14 Noroeste 27 Noroeste 0 -- -- 34
2019-08-02 00:00:00 24.4 9 Noroeste 16 Noroeste 0 -- -- 39
2019-08-01 23:00:00 25.5 9 Oeste 16 Oeste 0 -- -- 40
2019-08-01 22:00:00 26.9 10 Oeste 23 Sudoeste 0 -- -- 38
2019-08-01 21:00:00 29 12 Sudoeste 25 Sudoeste 0 -- -- 34
2019-08-01 20:00:00 30.5 15 Sudoeste 28 Sudoeste 0 -- -- 34
2019-08-01 19:00:00 32.3 17 Sudoeste 30 Sudoeste 0 -- -- 31
2019-08-01 18:00:00 33 20 Sudoeste 35 Sudoeste 0 -- -- 36
2019-08-01 17:00:00 34.8 16 Sudoeste 31 Sudoeste 0 -- -- 34
2019-08-01 16:00:00 34.1 12 Oeste 30 Sudoeste 0 -- -- 36
2019-08-01 15:00:00 32.6 13 Oeste 30 Oeste 0 -- -- 42
2019-08-01 14:00:00 31.7 15 Sudoeste 29 Sudoeste 0 -- -- 45
2019-08-01 13:00:00 30.3 13 Oeste 27 Sudoeste 0 -- -- 43
2019-08-01 12:00:00 28.5 8 Oeste 19 Oeste 0 -- -- 50
2019-08-01 11:00:00 26.7 10 Oeste 16 Sudoeste 0 -- -- 53
2019-08-01 10:00:00 24.2 3 Sur 6 Sudoeste 0 -- -- 44
2019-08-01 09:00:00 20 6 Noroeste 12 Noroeste 0 -- -- 54
2019-08-01 08:00:00 15 0 Calma 6 Noroeste 0 -- -- 73
2019-08-01 07:00:00 15.5 0 Calma 4 Norte 0 -- -- 74
2019-08-01 06:00:00 16.5 0 Calma 5 Noroeste 0 -- -- 71
2019-08-01 05:00:00 17.1 0 Calma 5 Noroeste 0 -- -- 72
2019-08-01 04:00:00 18.3 0 Calma 3 Este 0 -- -- 73
2019-08-01 03:00:00 19.4 0 Calma 5 Oeste 0 -- -- 66
2019-08-01 02:00:00 21.3 4 Oeste 8 Sudoeste 0 -- -- 61
2019-08-01 01:00:00 22.7 3 Sudoeste 8 Sudoeste 0 -- -- 65
2019-08-01 00:00:00 24.7 5 Sudoeste 10 Sudoeste 0 -- -- 62
2019-07-31 23:00:00 25.2 4 Sudoeste 12 Sudoeste 0 -- -- 64
2019-07-31 22:00:00 26.3 8 Sudoeste 27 Sudoeste 0 -- -- 61
2019-07-31 21:00:00 28.2 15 Sudoeste 33 Sudoeste 0 -- -- 54
2019-07-31 20:00:00 31 21 Sudoeste 34 Sudoeste 0 -- -- 39
2019-07-31 19:00:00 32.5 19 Sudoeste 36 Sur 0 -- -- 34
2019-07-31 18:00:00 33.3 19 Sudoeste 36 Oeste 0 -- -- 29
2019-07-31 17:00:00 34 22 Sudoeste 40 Sudoeste 0 -- -- 29
2019-07-31 16:00:00 35 14 Sudoeste 30 Sur 0 -- -- 28
2019-07-31 15:00:00 34.2 12 Sudoeste 24 Sudoeste 0 -- -- 23
2019-07-31 14:00:00 33.2 11 Oeste 23 Oeste 0 -- -- 23
2019-07-31 13:00:00 31.7 9 Oeste 18 Sudoeste 0 -- -- 23
2019-07-31 12:00:00 29.9 6 Sudoeste 14 Sudoeste 0 -- -- 25
2019-07-31 11:00:00 28.1 8 Sur 16 Sur 0 -- -- 26
2019-07-31 10:00:00 25.6 4 Sudoeste 6 Oeste 0 -- -- 25
2019-07-31 09:00:00 19.5 4 Noroeste 5 Noroeste 0 -- -- 37
2019-07-31 08:00:00 16.3 2 Sudoeste 10 Norte 0 -- -- 40
2019-07-31 07:00:00 14.9 6 Norte 8 Norte 0 -- -- 43
2019-07-31 06:00:00 16.4 3 Norte 6 Norte 0 -- -- 38
2019-07-31 05:00:00 18.5 3 Nordeste 6 Este 0 -- -- 34
2019-07-31 04:00:00 22.1 3 Noroeste 15 Norte 0 -- -- 27
2019-07-31 03:00:00 24.4 9 Norte 18 Norte 0 -- -- 23
2019-07-31 02:00:00 25 8 Norte 18 Norte 0 -- -- 22
2019-07-31 01:00:00 26.6 10 Norte 21 Norte 0 -- -- 19
2019-07-31 00:00:00 26.7 8 Norte 18 Noroeste 0 -- -- 19
2019-07-30 23:00:00 28.2 11 Noroeste 18 Noroeste 0 -- -- 18
2019-07-30 22:00:00 30.4 9 Noroeste 18 Noroeste 0 -- -- 16
2019-07-30 21:00:00 34.3 10 Norte 19 Norte 0 -- -- 12
2019-07-30 20:00:00 36.1 8 Norte 21 Norte 0 -- -- 10
2019-07-30 19:00:00 36.5 8 Nordeste 22 Norte 0 -- -- 11
2019-07-30 18:00:00 36.6 10 Noroeste 22 Noroeste 0 -- -- 10
2019-07-30 17:00:00 36.4 5 Este 23 Este 0 -- -- 13
2019-07-30 16:00:00 35.6 8 Sudoeste 19 Sudoeste 0 -- -- 13
2019-07-30 15:00:00 34.8 9 Sudeste 22 Sur 0 -- -- 17
2019-07-30 14:00:00 33.3 9 Norte 20 Norte 0 -- -- 18
2019-07-30 13:00:00 31.8 7 Norte 17 Norte 0 -- -- 20
2019-07-30 12:00:00 30.2 7 Nordeste 17 Norte 0 -- -- 24
2019-07-30 11:00:00 27.6 6 Nordeste 15 Noroeste 0 -- -- 28
2019-07-30 10:00:00 23 3 Noroeste 11 Noroeste 0 -- -- 40
2019-07-30 09:00:00 19.1 6 Noroeste 12 Noroeste 0 -- -- 52
2019-07-30 08:00:00 15.2 6 Noroeste 10 Noroeste 0 -- -- 63
2019-07-30 07:00:00 15.5 4 Noroeste 9 Noroeste 0 -- -- 59
2019-07-30 06:00:00 17.5 6 Noroeste 12 Norte 0 -- -- 54
2019-07-30 05:00:00 19 7 Noroeste 17 Noroeste 0 -- -- 51
2019-07-30 04:00:00 20.1 10 Noroeste 26 Noroeste 0 -- -- 49
2019-07-30 03:00:00 21.3 13 Noroeste 30 Noroeste 0 -- -- 45
2019-07-30 02:00:00 22.7 13 Noroeste 28 Noroeste 0 -- -- 42
2019-07-30 01:00:00 24.4 11 Noroeste 26 Noroeste 0 -- -- 37
2019-07-30 00:00:00 25.8 15 Noroeste 24 Noroeste 0 -- -- 33
2019-07-29 23:00:00 27.2 12 Noroeste 24 Noroeste 0 -- -- 31
2019-07-29 22:00:00 28.7 12 Noroeste 30 Noroeste 0 -- -- 30
2019-07-29 21:00:00 31 17 Noroeste 32 Oeste 0 -- -- 27
2019-07-29 20:00:00 32.7 16 Noroeste 35 Noroeste 0 -- -- 26
2019-07-29 19:00:00 33.6 19 Noroeste 35 Oeste 0 -- -- 27
2019-07-29 18:00:00 33.8 19 Oeste 37 Noroeste 0 -- -- 31
2019-07-29 17:00:00 34.2 18 Oeste 36 Noroeste 0 -- -- 30
2019-07-29 16:00:00 33.9 14 Oeste 29 Oeste 0 -- -- 29
2019-07-29 15:00:00 32.8 11 Oeste 36 Noroeste 0 -- -- 31
2019-07-29 14:00:00 31.7 9 Sudoeste 24 Noroeste 0 -- -- 32
2019-07-29 13:00:00 30.1 8 Noroeste 20 Oeste 0 -- -- 34
2019-07-29 12:00:00 28 5 Oeste 15 Noroeste 0 -- -- 30
2019-07-29 11:00:00 25.7 3 Sudoeste 14 Oeste 0 -- -- 42
2019-07-29 10:00:00 22.8 5 Noroeste 11 Noroeste 0 -- -- 44
2019-07-29 09:00:00 19.3 4 Noroeste 8 Noroeste 0 -- -- 63
2019-07-29 08:00:00 15.4 4 Noroeste 8 Noroeste 0 -- -- 79
2019-07-29 07:00:00 15.1 3 Oeste 5 Oeste 0 -- -- 82
2019-07-29 06:00:00 15.9 0 Calma 4 Oeste 0 -- -- 82
2019-07-29 05:00:00 16.7 0 Calma 3 Norte 0 -- -- 81
2019-07-29 04:00:00 17.2 0 Calma 4 Sudeste 0 -- -- 78
2019-07-29 03:00:00 17.7 2 Este 6 Este 0 -- -- 77
2019-07-29 02:00:00 18.1 0 Calma 3 Norte 0 -- -- 75
2019-07-29 01:00:00 19.2 0 Calma 3 Oeste 0 -- -- 71
2019-07-29 00:00:00 20.9 0 Calma 6 Noroeste 0 -- -- 67
2019-07-28 23:00:00 22.6 5 Sudoeste 16 Sudoeste 0 -- -- 61
2019-07-28 22:00:00 23.7 7 Sur 25 Sudoeste 0 -- -- 57
2019-07-28 21:00:00 25.3 15 Sudoeste 29 Sudoeste 0 -- -- 52
2019-07-28 20:00:00 26.9 15 Sudoeste 32 Sudoeste 0 -- -- 48
2019-07-28 19:00:00 28.6 15 Sudoeste 34 Sudoeste 0 -- -- 45
2019-07-28 18:00:00 30.4 17 Sudoeste 34 Sudoeste 0 -- -- 42
2019-07-28 17:00:00 31.1 17 Sudoeste 30 Sudoeste 0 -- -- 41
2019-07-28 16:00:00 30.8 8 Oeste 26 Nordeste 0 -- -- 38
2019-07-28 15:00:00 30.1 6 Este 21 Sudeste 0 -- -- 40
2019-07-28 14:00:00 29.6 9 Sudeste 24 Sudeste 0 -- -- 42
2019-07-28 13:00:00 28.5 6 Norte 24 Sudeste 0 -- -- 47
2019-07-28 12:00:00 25.8 5 Norte 14 Este 0 -- -- 53
2019-07-28 11:00:00 24.2 5 Nordeste 12 Sudeste 0 -- -- 57
2019-07-28 10:00:00 21.6 3 Este 12 Sudeste 0 -- -- 68
2019-07-28 09:00:00 17.9 4 Nordeste 6 Nordeste 0 -- -- 82
2019-07-28 08:00:00 14.2 0 Calma 6 Norte 0 -- -- 90
2019-07-28 07:00:00 14.8 2 Noroeste 3 Norte 0 -- -- 89
2019-07-28 06:00:00 15 2 Noroeste 5 Oeste 0 -- -- 88
2019-07-28 05:00:00 15.7 0 Calma 7 Oeste 0 -- -- 85
2019-07-28 04:00:00 16.8 2 Oeste 6 Noroeste 0 -- -- 82
2019-07-28 03:00:00 17.5 3 Oeste 8 Noroeste 0 -- -- 78
2019-07-28 02:00:00 19.1 3 Oeste 13 Oeste 0 -- -- 71
2019-07-28 01:00:00 20 7 Noroeste 19 Oeste 0 -- -- 67
2019-07-28 00:00:00 21 8 Noroeste 15 Noroeste 0 -- -- 64
2019-07-27 23:00:00 21.9 8 Noroeste 17 Oeste 0 -- -- 63
2019-07-26 12:00:00 -- -- -- -- -- -- -- -- --
2019-07-26 11:00:00 23 14 Noroeste 23 Noroeste 0 -- -- 52
2019-07-26 10:00:00 20.9 10 Noroeste 25 Noroeste 0 -- -- 63
2019-07-26 09:00:00 19.7 13 Noroeste 22 Noroeste 0 -- -- 66
2019-07-26 08:00:00 18.9 10 Noroeste 19 Noroeste 0 -- -- 72
2019-07-26 07:00:00 19.5 7 Noroeste 15 Noroeste 0 -- -- 78
2019-07-26 06:00:00 20 6 Oeste 13 Oeste 0 -- -- 78
2019-07-26 05:00:00 21 0 Calma 10 Norte 0 -- -- 77
2019-07-26 04:00:00 22.2 4 Noroeste 10 Noroeste 0 -- -- 74
2019-07-26 03:00:00 23.1 5 Noroeste 12 Noroeste 0 -- -- 72
2019-07-26 02:00:00 23.8 5 Oeste 24 Noroeste 0 -- -- 70
2019-07-26 01:00:00 24.5 16 Noroeste 35 Oeste 0 -- -- 66
2019-07-26 00:00:00 24.9 16 Noroeste 30 Noroeste 0 -- -- 61
2019-07-25 23:00:00 24.8 8 Oeste 13 Sudoeste 0 -- -- 62
2019-07-25 22:00:00 25.9 8 Sudoeste 23 Oeste 0 -- -- 55
2019-07-25 21:00:00 28.3 14 Sudoeste 28 Sudoeste 0 -- -- 47
2019-07-25 20:00:00 29.5 16 Sudoeste 33 Sudoeste 0 -- -- 47
2019-07-25 19:00:00 30.5 17 Sudoeste 37 Sudoeste 0 -- -- 47
2019-07-25 18:00:00 33.9 20 Sudoeste 34 Sudoeste 0 -- -- 38
2019-07-25 17:00:00 35.1 9 Sur 26 Sur 0 -- -- 27
2019-07-25 16:00:00 34.2 13 Sur 32 Sudoeste 0 -- -- 33
2019-07-25 15:00:00 33.7 12 Sudoeste 23 Sudoeste 0 -- -- 34
2019-07-25 14:00:00 32.7 12 Sur 27 Sudoeste 0 -- -- 37
2019-07-25 13:00:00 31.2 8 Sur 20 Sur 0 -- -- 41
2019-07-25 12:00:00 29.6 6 Sudoeste 17 Sudoeste 0 -- -- 47
2019-07-25 11:00:00 27.6 6 Sudoeste 16 Sur 0 -- -- 55
2019-07-25 10:00:00 25.1 0 Calma 10 Sudeste 0 -- -- 62
2019-07-25 09:00:00 21 3 Sudeste 7 Nordeste 0 -- -- 71
2019-07-25 08:00:00 16.4 4 Norte 6 Nordeste 0 -- -- 85
2019-07-25 07:00:00 16.5 4 Norte 5 Norte 0 -- -- 86
2019-07-25 06:00:00 17.4 0 Calma 6 Norte 0 -- -- 87
2019-07-25 05:00:00 18.2 2 Noroeste 6 Este 0 -- -- 85
2019-07-25 04:00:00 19.6 2 Nordeste 6 Norte 0 -- -- 84
2019-07-25 03:00:00 19.8 3 Noroeste 6 Noroeste 0 -- -- 84
2019-07-25 02:00:00 20.5 3 Oeste 4 Noroeste 0 -- -- 81
2019-07-25 01:00:00 21.9 3 Sudoeste 4 Sudoeste 0 -- -- 78
2019-07-25 00:00:00 23.4 2 Norte 11 Oeste 0 -- -- 73
2019-07-24 23:00:00 25.5 8 Oeste 14 Oeste 0 -- -- 69
2019-07-24 22:00:00 27.6 8 Sudoeste 19 Sudoeste 0 -- -- 60
2019-07-24 21:00:00 30.7 15 Sudoeste 26 Sudoeste 0 -- -- 48
2019-07-24 20:00:00 33.7 14 Sudoeste 25 Sudoeste 0 -- -- 40
2019-07-24 19:00:00 35.1 14 Sudoeste 26 Sudoeste 0 -- -- 33
2019-07-24 18:00:00 35.4 15 Sudoeste 28 Sudoeste 0 -- -- 30
2019-07-24 17:00:00 34.8 15 Sudoeste 32 Sudoeste 0 -- -- 38
2019-07-24 16:00:00 35.5 14 Sudoeste 28 Sudoeste 0 -- -- 36
2019-07-24 15:00:00 35.2 12 Sur 24 Sudoeste 0 -- -- 33
2019-07-24 14:00:00 34.5 9 Sudoeste 22 Sudoeste 0 -- -- 36
2019-07-24 13:00:00 32.8 11 Sudoeste 20 Sudoeste 0 -- -- 39
2019-07-24 12:00:00 31.2 9 Sudoeste 19 Sudoeste 0 -- -- 42
2019-07-24 11:00:00 29.4 8 Sudoeste 17 Sudoeste 0 -- -- 46
2019-07-24 10:00:00 26.1 5 Sudoeste 9 Sudoeste 0 -- -- 61
2019-07-24 09:00:00 23.3 2 Sudoeste 4 Sudoeste 0 -- -- 77
2019-07-24 08:00:00 19.1 2 Norte 4 Norte 0 -- -- 88
2019-07-24 07:00:00 19.1 0 Calma 3 Norte 0 -- -- 87
2019-07-24 06:00:00 19.6 3 Norte 4 Norte 0 -- -- 88
2019-07-24 05:00:00 20.4 3 Noroeste 5 Oeste 0 -- -- 85
2019-07-24 04:00:00 21.7 0 Calma 6 Sudeste 0 -- -- 83
2019-07-24 03:00:00 23.4 2 Norte 12 Noroeste 0 -- -- 74
2019-07-24 02:00:00 23.8 8 Noroeste 12 Oeste 0 -- -- 80
2019-07-24 01:00:00 23.9 5 Noroeste 12 Oeste 0 -- -- 79
2019-07-24 00:00:00 25 5 Oeste 9 Sudoeste 0 -- -- 75